Terminal Aerodrome Forecast
Issued by NWS

Home | Current Version | Previous Version | Graphics & Text | Print | Product List | Glossary On
Versions: 1 2 3 4 5 6 7 8 9 10 11 12 13 14 15 16 17 18 19 20 21 22 23 24 25 26 27
000
FTUS41 KCLE 012100 AAC
TAFFDY
TAF AMD
KFDY 012157Z 0122/0218 27004KT 5SM BR OVC045
      TEMPO 0122/0124 6SM -SN BR BKN008 OVC045
     FM020000 25008KT P6SM BKN060
     FM021100 27009KT P6SM SCT025=

USA.gov is the U.S. government's official web portal to all federal, state and local government web resources and services.